Time;durP1;ratioP1;P1;durP2;ratioP2;P2;SDS_P1;SDS_P2;PMS_P1;PMS_P2;Temp;Humidity;BMP_temperature;BMP_pressure;BME280_temperature;BME280_humidity;BME280_pressure;Samples;Min_cycle;Max_cycle;Signal;HPM_P1;HPM_P2
2023/01/05 00:01:35;;;;;;;3.13;1.50;;;;;;;10.49;64.41;99315.44;5112139;28;20048;-74
2023/01/05 00:04:02;;;;;;;2.80;1.70;;;;;;;10.44;64.60;99309.53;5112939;28;20347;-74
2023/01/05 00:06:30;;;;;;;2.47;1.70;;;;;;;10.49;64.65;99309.28;5112352;28;20059;-73
2023/01/05 00:09:01;;;;;;;2.42;1.65;;;;;;;5.68;64.49;98488.94;5113198;28;20047;-74
2023/01/05 00:22:52;;;;;;;2.72;1.70;;;;;;;10.14;66.37;99202.63;5112020;28;20047;-74
2023/01/05 00:25:22;;;;;;;3.38;1.60;;;;;;;10.39;66.08;99271.00;5113437;28;20090;-75
2023/01/05 00:27:57;;;;;;;2.20;1.40;;;;;;;10.38;66.49;99251.59;5113022;28;20046;-75
2023/01/05 00:30:40;;;;;;;2.45;1.50;;;;;;;6.93;66.44;98680.06;5115769;28;20044;-75
2023/01/05 00:33:09;;;;;;;2.53;1.48;;;;;;;10.39;66.21;99245.34;5113119;28;20048;-75
2023/01/05 00:35:39;;;;;;;2.63;1.73;;;;;;;4.35;65.78;98226.66;5111651;28;20044;-75
2023/01/05 00:38:07;;;;;;;2.70;1.73;;;;;;;7.63;65.88;98771.31;5112469;28;20304;-75
2023/01/05 00:40:35;;;;;;;2.40;1.63;;;;;;;10.42;66.39;99242.53;5095391;28;20118;-75
2023/01/05 00:43:07;;;;;;;2.20;1.35;;;;;;;7.59;66.20;98759.25;5112374;28;20062;-75
2023/01/05 00:45:38;;;;;;;2.28;1.40;;;;;;;8.90;66.53;98973.97;5113129;28;20039;-75
2023/01/05 00:48:11;;;;;;;2.72;1.60;;;;;;;10.14;67.25;99190.25;5112869;28;20044;-74
2023/01/05 00:50:38;;;;;;;2.30;1.50;;;;;;;8.14;66.78;98829.34;5113443;28;20035;-74
2023/01/05 00:53:05;;;;;;;2.50;1.83;;;;;;;3.97;66.49;98152.41;5112683;28;20047;-74
2023/01/05 00:55:33;;;;;;;2.00;1.30;;;;;;;10.40;67.14;99215.28;5113516;28;20099;-74
2023/01/05 00:58:00;;;;;;;3.47;1.45;;;;;;;10.42;66.88;99210.75;5113518;28;20119;-74
2023/01/05 01:00:29;;;;;;;2.67;1.60;;;;;;;-3.50;66.22;96978.66;5113789;28;20059;-75
2023/01/05 01:02:57;;;;;;;2.42;1.35;;;;;;;10.41;67.32;99224.94;5111134;28;20288;-74
2023/01/05 01:05:24;;;;;;;2.05;1.30;;;;;;;8.44;67.33;99064.50;5093690;28;20051;-73
2023/01/05 01:07:57;;;;;;;1.60;1.10;;;;;;;7.19;68.30;98735.84;5094708;28;20054;-74
2023/01/05 01:10:25;;;;;;;2.00;1.38;;;;;;;7.56;67.25;98775.22;5112201;28;20048;-74
2023/01/05 01:12:56;;;;;;;2.80;1.40;;;;;;;9.80;67.67;99150.72;5112905;28;20052;-74
2023/01/05 01:15:23;;;;;;;2.10;1.35;;;;;;;10.44;67.59;99248.59;5110934;28;20056;-75
2023/01/05 01:17:50;;;;;;;2.10;1.40;;;;;;;10.44;68.29;99231.84;5113182;28;20044;-74
2023/01/05 01:20:19;;;;;;;2.15;1.38;;;;;;;9.13;68.02;99020.28;5112368;28;20127;-74
2023/01/05 01:22:46;;;;;;;1.80;1.20;;;;;;;10.43;68.12;99248.69;5111346;28;20250;-73
2023/01/05 01:25:13;;;;;;;2.22;1.30;;;;;;;10.08;68.94;99203.84;5109356;28;20046;-73
2023/01/05 01:27:40;;;;;;;2.10;1.48;;;;;;;7.49;68.26;98786.16;5109617;28;20050;-74
2023/01/05 01:30:08;;;;;;;2.22;1.42;;;;;;;10.44;68.92;99251.25;5109666;28;20258;-74
2023/01/05 01:32:35;;;;;;;1.92;1.30;;;;;;;10.42;69.44;99223.97;5110401;28;20032;-74
2023/01/05 01:35:01;;;;;;;2.33;1.48;;;;;;;10.40;69.38;99260.31;5108994;28;20291;-74
2023/01/05 01:37:35;;;;;;;2.47;1.30;;;;;;;10.20;69.94;99194.34;5109839;28;20276;-74
2023/01/05 01:40:03;;;;;;;1.80;1.20;;;;;;;8.66;69.07;98946.22;5111798;28;20043;-74
2023/01/05 01:42:32;;;;;;;2.05;1.30;;;;;;;9.25;69.54;99014.34;5095524;28;20078;-74
2023/01/05 01:45:00;;;;;;;2.08;1.40;;;;;;;8.48;69.47;99058.97;5094430;28;20036;-74
2023/01/05 01:47:39;;;;;;;2.60;1.48;;;;;;;-3.93;70.10;96874.06;5112309;28;20051;-74
2023/01/05 01:50:13;;;;;;;1.80;1.30;;;;;;;8.07;70.75;98847.28;5112405;28;20124;-74
2023/01/05 01:52:44;;;;;;;1.67;1.10;;;;;;;-0.61;69.92;97373.84;5111765;28;20292;-74
2023/01/05 01:55:12;;;;;;;3.28;1.20;;;;;;;8.82;70.36;98981.44;5112933;28;20120;-74
2023/01/05 01:57:40;;;;;;;1.92;1.45;;;;;;;10.39;70.85;99212.72;5112155;28;20314;-74
2023/01/05 02:00:09;;;;;;;1.77;1.20;;;;;;;9.56;70.86;99060.31;5111523;28;20059;-73
2023/01/05 02:02:37;;;;;;;1.80;1.20;;;;;;;2.15;70.71;97819.78;5111100;28;20119;-74
2023/01/05 02:05:13;;;;;;;1.77;1.23;;;;;;;4.55;71.33;98223.06;5111714;28;20052;-74
2023/01/05 02:07:45;;;;;;;2.00;1.25;;;;;;;3.39;71.15;98013.69;5092440;28;20040;-74
2023/01/05 02:10:13;;;;;;;2.10;1.30;;;;;;;10.36;70.89;99184.59;5109082;28;20032;-74
2023/01/05 02:12:53;;;;;;;2.30;1.20;;;;;;;9.31;71.90;99006.09;5110121;28;20067;-74
2023/01/05 02:15:28;;;;;;;1.83;1.20;;;;;;;10.36;71.93;99175.78;5110260;28;20127;-73
2023/01/05 02:18:09;;;;;;;1.70;1.13;;;;;;;10.05;72.33;99113.13;5111169;28;20227;-73
2023/01/05 02:20:58;;;;;;;2.30;1.30;;;;;;;10.34;72.46;99162.63;5108831;28;20201;-74
2023/01/05 02:24:02;;;;;;;1.83;1.20;;;;;;;10.35;72.45;99132.56;5105144;28;20036;-74
2023/01/05 02:27:19;;;;;;;2.78;1.52;;;;;;;10.34;72.57;99141.44;5106209;28;20119;-74
2023/01/05 02:30:15;;;;;;;1.33;1.10;;;;;;;9.86;72.38;99057.72;5102827;28;20101;-74
2023/01/05 02:32:53;;;;;;;3.05;1.20;;;;;;;10.35;71.89;99127.25;5105867;28;20048;-73
2023/01/05 02:35:30;;;;;;;1.65;1.17;;;;;;;10.37;71.56;99112.13;5106583;28;20176;-74
2023/01/05 02:38:05;;;;;;;1.73;1.10;;;;;;;10.40;71.07;99129.63;5106047;28;20040;-74
2023/01/05 02:40:37;;;;;;;1.63;1.10;;;;;;;10.17;70.79;99051.50;5106180;28;20036;-74
2023/01/05 02:43:05;;;;;;;1.90;1.27;;;;;;;10.46;70.67;99116.88;5106218;28;20086;-74
2023/01/05 02:45:32;;;;;;;1.63;1.10;;;;;;;10.19;70.55;99053.13;5106332;28;20039;-74
2023/01/05 02:48:01;;;;;;;1.70;1.20;;;;;;;10.50;70.63;99112.25;5106403;28;20245;-74
2023/01/05 02:50:31;;;;;;;1.58;1.20;;;;;;;10.14;70.52;99020.78;5105731;28;20042;-74
2023/01/05 02:53:06;;;;;;;1.70;1.20;;;;;;;10.53;70.74;99090.88;5105674;28;20042;-74
2023/01/05 02:55:35;;;;;;;;;;;;;;;10.48;71.79;99095.59;5106766;28;20048;-74
2023/01/05 02:58:07;;;;;;;2.38;1.23;;;;;;;9.42;70.58;98927.97;5113101;28;19916;-74
2023/01/05 03:00:40;;;;;;;1.58;1.48;;;;;;;10.55;70.31;99096.94;5113891;28;20286;-74
2023/01/05 03:03:13;;;;;;;2.92;1.25;;;;;;;9.65;70.48;98956.59;5113064;28;20107;-74
2023/01/05 03:05:48;;;;;;;1.60;1.13;;;;;;;9.67;69.87;98957.34;5114658;28;20036;-74
2023/01/05 03:08:21;;;;;;;1.63;1.20;;;;;;;10.62;69.73;99094.78;5112932;28;20058;-73
2023/01/05 03:13:46;;;;;;;2.22;1.23;;;;;;;10.62;69.80;99103.59;5113357;28;20032;-73
2023/01/05 03:16:20;;;;;;;1.70;1.20;;;;;;;10.64;69.46;99116.75;5118225;28;20028;-73
2023/01/05 03:35:33;;;;;;;2.33;1.38;;;;;;;9.97;68.67;98973.25;5115851;28;20182;-74
2023/01/05 03:38:11;;;;;;;1.98;1.25;;;;;;;10.18;68.21;98984.38;5116827;28;20046;-74
2023/01/05 03:40:39;;;;;;;1.80;1.30;;;;;;;10.68;68.45;99052.03;5098491;28;20036;-74
2023/01/05 03:43:07;;;;;;;1.63;1.10;;;;;;;10.69;68.21;99043.13;5098502;28;20048;-73
2023/01/05 03:45:38;;;;;;;1.80;1.15;;;;;;;10.67;67.87;99053.81;5114859;28;20036;-74
2023/01/05 03:48:06;;;;;;;1.48;1.10;;;;;;;10.68;68.13;99036.13;5114891;28;20050;-74
2023/01/05 03:50:35;;;;;;;2.28;1.30;;;;;;;10.68;67.80;99039.63;5114458;28;20055;-74
2023/01/05 03:53:02;;;;;;;1.75;1.27;;;;;;;10.71;67.71;99043.88;5111124;28;20112;-74
2023/01/05 03:55:29;;;;;;;1.35;1.08;;;;;;;10.18;67.62;98982.56;5109148;28;20270;-73
2023/01/05 03:57:56;;;;;;;2.13;1.20;;;;;;;10.69;67.70;99027.22;5109554;28;20295;-74
2023/01/05 04:00:23;;;;;;;2.45;1.20;;;;;;;10.69;67.80;99020.13;5110067;28;20095;-74
2023/01/05 04:02:51;;;;;;;1.80;1.25;;;;;;;10.70;67.69;99029.78;5110091;28;20044;-74
2023/01/05 04:05:17;;;;;;;1.80;1.27;;;;;;;10.71;67.56;99036.78;5109644;28;20214;-73
2023/01/05 04:07:46;;;;;;;2.22;1.27;;;;;;;10.73;67.24;99026.94;5110218;28;20097;-74
2023/01/05 04:10:12;;;;;;;1.70;1.20;;;;;;;10.73;67.17;99028.75;5109458;28;20044;-74
2023/01/05 04:12:39;;;;;;;2.67;1.15;;;;;;;10.75;67.19;99025.06;5108720;28;20055;-74
2023/01/05 04:15:07;;;;;;;2.15;1.20;;;;;;;10.31;67.05;98952.72;5110127;28;20042;-74
2023/01/05 04:17:34;;;;;;;1.60;1.10;;;;;;;10.76;67.05;98994.09;5108025;28;20042;-74
2023/01/05 04:20:04;;;;;;;1.58;1.13;;;;;;;7.05;66.68;98397.50;5112058;28;20054;-73
2023/01/05 04:22:34;;;;;;;1.55;1.20;;;;;;;10.01;67.07;98879.47;5112972;28;20300;-74
2023/01/05 04:25:04;;;;;;;1.33;1.08;;;;;;;10.75;66.90;99008.28;5113072;28;20032;-75
2023/01/05 04:27:31;;;;;;;1.60;1.10;;;;;;;4.90;66.66;98013.97;5114082;28;20103;-74
2023/01/05 04:29:59;;;;;;;1.73;1.20;;;;;;;10.75;66.93;99013.59;5113914;28;20258;-74
2023/01/05 04:32:27;;;;;;;1.90;1.10;;;;;;;10.78;66.86;98984.28;5096625;28;20216;-74
2023/01/05 04:34:53;;;;;;;2.75;1.17;;;;;;;6.81;66.53;98326.91;5111127;28;20355;-74
2023/01/05 04:37:20;;;;;;;1.98;1.20;;;;;;;10.79;66.67;98993.94;5112302;28;20280;-74
2023/01/05 04:39:47;;;;;;;1.98;1.20;;;;;;;10.78;66.57;98963.94;5111613;28;20048;-75
2023/01/05 04:42:15;;;;;;;1.55;1.10;;;;;;;10.14;66.44;98885.72;5111986;28;20048;-74
2023/01/05 04:44:42;;;;;;;1.58;1.25;;;;;;;10.80;66.44;99004.44;5112173;28;20039;-75
2023/01/05 04:47:09;;;;;;;1.33;1.08;;;;;;;10.82;66.56;98996.41;5111934;28;20050;-75
2023/01/05 04:49:36;;;;;;;1.88;1.20;;;;;;;10.84;66.24;98986.56;5111282;28;20062;-75
2023/01/05 04:52:02;;;;;;;1.48;1.20;;;;;;;10.84;66.18;98984.75;5111344;28;20312;-75
2023/01/05 04:54:29;;;;;;;1.40;1.10;;;;;;;10.86;66.28;99012.03;5111261;28;20036;-75
2023/01/05 04:56:56;;;;;;;1.35;1.20;;;;;;;10.88;66.23;98993.38;5111816;28;20046;-75
2023/01/05 04:59:24;;;;;;;1.65;1.20;;;;;;;10.85;65.89;98986.47;5110664;28;20059;-75
2023/01/05 05:01:51;;;;;;;1.52;1.10;;;;;;;10.86;65.92;98982.84;5111826;28;20050;-75
2023/01/05 05:04:18;;;;;;;1.60;1.20;;;;;;;10.87;65.96;98966.00;5111608;28;20039;-75
2023/01/05 05:06:45;;;;;;;1.80;1.20;;;;;;;10.89;65.75;98963.25;5110896;28;20040;-75
2023/01/05 05:09:12;;;;;;;1.52;1.20;;;;;;;10.88;65.61;98962.41;5111471;28;20044;-75
2023/01/05 05:11:39;;;;;;;1.48;1.10;;;;;;;10.90;65.79;98941.09;5110850;28;20058;-75
2023/01/05 05:14:06;;;;;;;1.33;1.10;;;;;;;10.91;65.53;98926.91;5111129;28;20028;-75
2023/01/05 05:16:34;;;;;;;1.55;1.30;;;;;;;10.88;65.48;98912.03;5111036;28;20048;-75
2023/01/05 05:19:01;;;;;;;1.90;1.20;;;;;;;10.91;65.55;98916.28;5110468;28;20039;-75
2023/01/05 05:21:27;;;;;;;1.85;1.25;;;;;;;10.93;65.38;98934.75;5110674;28;20036;-75
2023/01/05 05:23:54;;;;;;;2.17;1.55;;;;;;;10.88;65.30;98924.44;5111242;28;20044;-75
2023/01/05 05:26:21;;;;;;;1.70;1.30;;;;;;;10.94;65.44;98923.19;5110299;28;20040;-75
2023/01/05 05:28:48;;;;;;;1.77;1.10;;;;;;;10.95;65.17;98901.88;5111279;28;20054;-74
2023/01/05 05:31:14;;;;;;;1.48;1.20;;;;;;;10.76;65.37;98870.38;5111358;28;20119;-75
2023/01/05 05:33:42;;;;;;;2.08;1.40;;;;;;;10.95;65.16;98915.16;5110719;28;20062;-75
2023/01/05 05:36:10;;;;;;;2.00;1.20;;;;;;;10.97;65.29;98900.00;5110707;28;20096;-75
2023/01/05 05:38:38;;;;;;;1.38;1.15;;;;;;;10.97;65.19;98899.16;5110929;28;20044;-75
2023/01/05 05:41:05;;;;;;;1.90;1.20;;;;;;;10.98;64.96;98908.78;5110440;28;20032;-75
2023/01/05 05:43:31;;;;;;;1.73;1.20;;;;;;;10.98;64.73;98891.09;5109627;28;20050;-75
2023/01/05 05:45:59;;;;;;;1.60;1.17;;;;;;;10.99;64.86;98882.19;5112027;28;20067;-74
2023/01/05 05:48:27;;;;;;;2.53;1.13;;;;;;;10.12;64.92;98741.13;5111109;28;20066;-75
2023/01/05 05:50:59;;;;;;;1.50;1.15;;;;;;;10.99;64.79;98878.69;5112604;28;20213;-75
2023/01/05 05:53:27;;;;;;;3.03;1.20;;;;;;;11.01;64.62;98925.38;5113016;28;20040;-75
2023/01/05 05:55:54;;;;;;;2.03;1.30;;;;;;;11.05;64.81;98879.13;5110362;28;20043;-75
2023/01/05 05:58:21;;;;;;;2.50;1.40;;;;;;;11.07;64.44;98879.88;5109876;28;20051;-75
2023/01/05 06:00:48;;;;;;;2.05;1.27;;;;;;;11.08;64.33;98870.97;5110262;28;20044;-75
2023/01/05 06:03:15;;;;;;;3.05;1.27;;;;;;;11.09;64.46;98901.00;5109385;28;20047;-75
2023/01/05 06:05:41;;;;;;;2.35;1.60;;;;;;;11.10;64.46;98897.41;5109134;28;20102;-75
2023/01/05 06:08:09;;;;;;;2.22;1.20;;;;;;;10.55;64.40;98784.28;5108744;28;20051;-75
2023/01/05 06:10:36;;;;;;;1.95;1.20;;;;;;;11.16;64.43;98891.69;5108811;28;20040;-75
2023/01/05 06:13:04;;;;;;;1.52;1.20;;;;;;;11.15;64.35;98904.13;5108748;28;20060;-75
2023/01/05 06:15:31;;;;;;;1.40;1.00;;;;;;;11.16;64.44;98903.16;5108599;28;20331;-75
2023/01/05 06:17:58;;;;;;;1.77;1.15;;;;;;;11.17;64.22;98888.94;5109606;28;20039;-74
2023/01/05 06:20:25;;;;;;;1.63;1.10;;;;;;;11.19;64.39;98897.66;5109571;28;20043;-75
2023/01/05 06:22:51;;;;;;;1.70;1.30;;;;;;;11.20;64.27;98903.81;5109505;28;20311;-75
2023/01/05 06:25:20;;;;;;;1.65;1.20;;;;;;;11.19;64.37;98891.50;5109102;28;20036;-75
2023/01/05 06:27:46;;;;;;;1.30;1.00;;;;;;;9.97;64.70;98678.56;5092300;28;20051;-75
2023/01/05 06:30:13;;;;;;;2.72;1.10;;;;;;;11.17;64.50;98899.56;5109436;28;20050;-75
2023/01/05 06:32:40;;;;;;;1.50;1.10;;;;;;;11.19;64.71;98881.75;5112881;28;20040;-75
2023/01/05 06:35:08;;;;;;;1.80;1.20;;;;;;;11.20;64.58;98859.56;5095757;28;20028;-75
2023/01/05 06:37:35;;;;;;;1.40;1.10;;;;;;;11.19;64.67;98897.66;5113749;28;20311;-75
2023/01/05 06:40:02;;;;;;;1.50;1.10;;;;;;;10.44;64.89;98779.66;5112373;28;20042;-75
2023/01/05 06:42:30;;;;;;;1.42;1.23;;;;;;;10.31;64.73;98743.47;5112001;28;20046;-75
2023/01/05 06:44:57;;;;;;;1.73;1.20;;;;;;;11.26;64.78;98889.31;5113101;28;20044;-75
2023/01/05 06:47:24;;;;;;;2.05;1.25;;;;;;;11.27;64.81;98896.31;5112591;28;20035;-75
2023/01/05 06:49:51;;;;;;;1.73;1.30;;;;;;;11.26;64.76;98903.41;5113681;28;20109;-75
2023/01/05 06:52:17;;;;;;;1.60;1.10;;;;;;;11.24;64.89;98900.88;5113187;28;20044;-74
2023/01/05 06:54:45;;;;;;;1.50;1.10;;;;;;;11.27;64.80;98912.22;5114595;28;20050;-74
2023/01/05 06:57:12;;;;;;;1.90;1.25;;;;;;;10.69;64.82;98807.25;5116206;28;20040;-75
2023/01/05 06:59:40;;;;;;;2.42;1.20;;;;;;;10.98;64.57;98877.84;5097302;28;20047;-74
2023/01/05 07:02:14;;;;;;;1.88;1.23;;;;;;;10.82;64.59;98835.53;5116309;28;20040;-75
2023/01/05 07:04:41;;;;;;;1.57;1.10;;;;;;;11.34;64.60;98913.53;5115336;28;20043;-75
2023/01/05 07:07:11;;;;;;;2.05;1.30;;;;;;;11.34;64.68;98894.97;5115436;27;20111;-74
2023/01/05 07:09:38;;;;;;;1.40;1.10;;;;;;;11.37;64.45;98910.69;5115586;28;20055;-75
2023/01/05 07:12:05;;;;;;;1.67;1.15;;;;;;;11.39;64.34;98914.09;5114518;28;20051;-75
2023/01/05 07:14:32;;;;;;;1.70;1.20;;;;;;;11.41;64.44;98912.19;5081182;28;20035;-75
2023/01/05 07:17:01;;;;;;;1.25;1.08;;;;;;;11.42;64.57;98922.69;5115651;28;20047;-75
2023/01/05 07:19:28;;;;;;;1.70;1.17;;;;;;;11.09;64.23;98859.44;5114991;28;20059;-75
2023/01/05 07:21:55;;;;;;;2.25;1.33;;;;;;;11.43;64.29;98932.34;5097974;28;20048;-74
2023/01/05 07:24:21;;;;;;;2.35;1.23;;;;;;;11.43;64.38;98923.53;5113978;28;20052;-75
2023/01/05 07:26:49;;;;;;;1.67;1.33;;;;;;;11.44;64.32;98925.25;5114354;28;20123;-75
2023/01/05 07:29:16;;;;;;;1.95;1.55;;;;;;;11.44;64.48;98957.94;5113070;28;20046;-75
2023/01/05 07:31:43;;;;;;;2.67;1.35;;;;;;;11.46;64.46;98933.97;5096589;28;20065;-75
2023/01/05 07:34:11;;;;;;;2.30;1.20;;;;;;;11.48;64.11;98938.22;5114039;28;20151;-75
2023/01/05 07:36:38;;;;;;;3.53;1.33;;;;;;;11.50;64.13;98952.22;5114712;28;20203;-75
2023/01/05 07:39:05;;;;;;;1.40;1.10;;;;;;;11.53;64.53;98935.25;5097340;28;20036;-75
2023/01/05 07:41:32;;;;;;;1.73;1.13;;;;;;;11.58;64.26;98954.38;5114278;28;20040;-75
2023/01/05 07:43:59;;;;;;;1.70;1.30;;;;;;;11.59;64.17;98940.16;5113520;28;20032;-75
2023/01/05 07:46:25;;;;;;;2.50;1.20;;;;;;;11.60;64.15;98963.09;5114388;28;20051;-75
2023/01/05 07:48:52;;;;;;;1.48;1.10;;;;;;;11.62;64.41;98949.72;5112481;28;20046;-75
2023/01/05 07:51:21;;;;;;;1.55;1.20;;;;;;;11.64;63.99;98930.09;5112896;28;20036;-75
2023/01/05 07:53:48;;;;;;;1.50;1.13;;;;;;;11.67;64.35;98985.63;5112987;28;20227;-75
2023/01/05 07:56:15;;;;;;;1.67;1.30;;;;;;;11.69;64.18;98969.59;5095154;28;20040;-75
2023/01/05 07:58:42;;;;;;;1.70;1.30;;;;;;;11.56;64.43;98946.53;5111677;28;20040;-75
2023/01/05 08:01:10;;;;;;;1.75;1.10;;;;;;;11.13;64.41;98868.03;5113047;28;20074;-75
2023/01/05 08:03:37;;;;;;;1.70;1.15;;;;;;;11.72;64.22;98962.28;5112459;28;20205;-75
2023/01/05 08:06:06;;;;;;;1.92;1.25;;;;;;;10.85;64.41;98808.00;5112642;28;20081;-75
2023/01/05 08:08:35;;;;;;;2.08;1.27;;;;;;;10.73;63.93;98838.75;5112375;28;20044;-75
2023/01/05 08:11:03;;;;;;;1.73;1.20;;;;;;;11.42;64.51;98906.78;5112401;28;20070;-75
2023/01/05 08:16:14;;;;;;;1.50;1.10;;;;;;;10.76;64.48;99118.69;5110690;28;20040;-75
2023/01/05 08:18:41;;;;;;;2.28;1.40;;;;;;;11.79;64.62;98968.03;5111032;28;20051;-75
2023/01/05 08:21:08;;;;;;;1.48;1.10;;;;;;;11.77;64.72;98967.28;5110924;28;20115;-75
2023/01/05 08:23:38;;;;;;;1.48;1.17;;;;;;;11.83;64.69;98974.84;5110939;28;20040;-74
2023/01/05 08:26:06;;;;;;;1.70;1.20;;;;;;;11.84;64.56;98995.16;5110485;28;20043;-74
2023/01/05 08:28:34;;;;;;;1.67;1.20;;;;;;;11.83;64.99;98986.31;5109923;28;20040;-75
2023/01/05 08:31:01;;;;;;;2.20;1.40;;;;;;;11.35;64.76;98894.00;5110735;28;20050;-74
2023/01/05 08:33:29;;;;;;;1.15;1.05;;;;;;;11.85;64.70;98976.47;5110086;28;20191;-75
2023/01/05 08:35:56;;;;;;;1.70;1.20;;;;;;;11.84;64.83;99006.63;5111113;28;20194;-74
2023/01/05 08:38:23;;;;;;;3.08;1.35;;;;;;;11.84;64.42;99001.31;5077410;28;20130;-75
2023/01/05 08:40:52;;;;;;;1.83;1.20;;;;;;;11.41;64.86;98920.13;5111086;28;20040;-75
2023/01/05 08:43:22;;;;;;;2.53;1.30;;;;;;;11.85;64.56;98987.06;5111265;28;20067;-75
2023/01/05 08:45:50;;;;;;;2.28;1.15;;;;;;;8.75;64.66;98458.75;5111232;28;20051;-75
2023/01/05 08:48:16;;;;;;;1.60;1.30;;;;;;;11.86;64.60;98986.13;5112611;28;20066;-74
2023/01/05 08:50:43;;;;;;;1.70;1.10;;;;;;;11.14;64.41;98867.09;5112900;28;20334;-75
2023/01/05 08:53:10;;;;;;;1.45;1.13;;;;;;;11.89;64.41;98979.75;5113043;28;20040;-75
2023/01/05 08:55:37;;;;;;;1.90;1.10;;;;;;;11.88;64.27;99002.81;5112295;28;20032;-75
2023/01/05 08:58:06;;;;;;;1.58;1.10;;;;;;;11.88;64.19;98988.69;5112667;28;20047;-75
2023/01/05 09:00:33;;;;;;;1.48;1.10;;;;;;;11.09;64.30;98853.28;5113486;28;20036;-75
2023/01/05 09:03:00;;;;;;;1.58;1.10;;;;;;;11.88;64.13;98999.31;5113275;28;20039;-75
2023/01/05 09:05:27;;;;;;;1.85;1.10;;;;;;;11.90;64.36;98973.50;5111366;28;20046;-75
2023/01/05 09:07:53;;;;;;;2.55;1.10;;;;;;;11.89;64.22;99015.13;5112781;28;20036;-75
2023/01/05 09:10:20;;;;;;;1.98;1.30;;;;;;;11.89;64.22;98998.34;5114372;28;20046;-75
2023/01/05 09:12:47;;;;;;;1.67;1.10;;;;;;;9.82;64.16;98632.75;5113340;28;20091;-75
2023/01/05 09:15:15;;;;;;;2.95;1.20;;;;;;;11.89;64.38;99004.50;5113825;28;20319;-75
2023/01/05 09:17:44;;;;;;;1.60;1.10;;;;;;;11.91;64.18;98999.09;5112514;28;20064;-75
2023/01/05 09:20:12;;;;;;;3.22;1.27;;;;;;;11.92;64.18;99002.59;5112362;28;20036;-75
2023/01/05 09:22:39;;;;;;;1.70;1.17;;;;;;;11.92;64.24;99015.88;5095910;28;20050;-74
2023/01/05 09:25:07;;;;;;;3.67;1.20;;;;;;;11.93;64.11;99005.16;5113637;28;20040;-75
2023/01/05 09:27:35;;;;;;;1.80;1.20;;;;;;;11.94;64.03;99011.31;5112261;28;20050;-75
2023/01/05 09:30:01;;;;;;;2.15;1.27;;;;;;;11.95;64.12;98997.09;5111254;28;20121;-74
2023/01/05 09:32:31;;;;;;;2.88;1.17;;;;;;;11.98;64.02;99018.13;5111685;28;20040;-75
2023/01/05 09:34:58;;;;;;;1.85;1.10;;;;;;;11.99;64.16;99030.47;5110454;28;20118;-75
2023/01/05 09:37:25;;;;;;;1.42;1.10;;;;;;;12.01;64.04;99060.47;5110941;28;20044;-75
2023/01/05 09:39:52;;;;;;;1.75;1.10;;;;;;;12.02;64.05;99040.91;5111540;28;20040;-75
2023/01/05 09:42:23;;;;;;;1.75;1.20;;;;;;;12.02;64.19;99070.13;5113717;28;20046;-75
2023/01/05 09:44:54;;;;;;;1.27;1.08;;;;;;;10.86;63.98;98839.69;5096032;28;20101;-75
2023/01/05 09:47:32;;;;;;;2.50;1.70;;;;;;;11.97;64.18;99019.09;5111800;28;20119;-75
2023/01/05 09:50:01;;;;;;;1.40;1.15;;;;;;;12.05;64.47;99030.94;5095250;28;20078;-74
2023/01/05 09:52:28;;;;;;;1.75;1.10;;;;;;;12.07;64.38;99041.47;5113395;28;20116;-75
2023/01/05 09:54:56;;;;;;;1.60;1.27;;;;;;;11.64;64.23;98951.31;5113155;28;20112;-75
2023/01/05 09:57:27;;;;;;;1.70;1.20;;;;;;;12.20;63.98;99050.34;5113270;28;20200;-75
2023/01/05 09:59:57;;;;;;;4.40;1.67;;;;;;;12.24;63.79;99043.88;5113118;28;20181;-75
2023/01/05 10:02:30;;;;;;;1.83;1.27;;;;;;;12.25;63.53;99050.91;5111744;28;20040;-75
2023/01/05 10:05:01;;;;;;;1.67;1.23;;;;;;;12.25;63.72;99036.75;5112515;28;20135;-75
2023/01/05 10:07:35;;;;;;;1.63;1.30;;;;;;;8.53;62.91;98510.25;5116238;28;20073;-75
2023/01/05 10:10:09;;;;;;;2.10;1.40;;;;;;;5.01;62.92;97876.84;5118145;28;20099;-75
2023/01/05 10:13:01;;;;;;;3.38;1.20;;;;;;;1.61;62.58;97266.06;5115506;28;20190;-75
2023/01/05 10:15:33;;;;;;;2.85;1.40;;;;;;;12.20;63.72;99023.78;5116208;28;20032;-74
2023/01/05 10:18:03;;;;;;;1.40;1.10;;;;;;;12.19;63.73;99048.66;5116909;28;20050;-75
2023/01/05 10:20:40;;;;;;;2.92;2.00;;;;;;;5.22;63.10;97883.50;5116902;28;20036;-74
2023/01/05 10:23:18;;;;;;;2.55;1.75;;;;;;;12.15;63.69;99082.50;5116598;28;20107;-75
2023/01/05 10:25:54;;;;;;;3.50;1.70;;;;;;;10.77;65.14;98885.34;5116160;28;20031;-75
2023/01/05 10:28:33;;;;;;;7.80;2.33;;;;;;;11.97;66.82;99104.91;5099714;28;20044;-75
2023/01/05 10:31:02;;;;;;;5.85;2.28;;;;;;;10.26;67.57;98839.94;5117291;28;20264;-75
2023/01/05 10:33:47;;;;;;;6.32;2.35;;;;;;;11.76;69.27;99104.50;5116416;28;20036;-75
2023/01/05 10:36:35;;;;;;;4.40;2.00;;;;;;;11.64;69.46;99120.34;5116724;28;20044;-75
2023/01/05 10:39:10;;;;;;;4.00;2.03;;;;;;;11.52;69.31;99101.59;5116544;28;20047;-75
2023/01/05 10:41:42;;;;;;;;;;;;;;;11.41;70.64;99119.13;5116786;28;20060;-75
2023/01/05 10:44:43;;;;;;;2.83;1.55;;;;;;;11.35;70.69;99103.59;5116935;28;19983;-75
2023/01/05 10:47:11;;;;;;;3.38;1.70;;;;;;;11.30;69.68;99111.00;5116273;28;20047;-75
2023/01/05 10:49:40;;;;;;;3.33;1.83;;;;;;;11.24;69.95;99099.81;5115321;28;20123;-75
2023/01/05 10:52:13;;;;;;;2.35;1.50;;;;;;;11.14;70.33;99097.81;5114875;28;20036;-75
2023/01/05 10:54:44;;;;;;;3.42;1.88;;;;;;;11.06;70.48;99082.38;5117115;28;20044;-75
2023/01/05 10:57:34;;;;;;;7.57;2.25;;;;;;;11.03;71.06;99092.31;5115628;28;20036;-75
2023/01/05 11:00:04;;;;;;;3.15;1.92;;;;;;;10.48;70.46;98997.56;5114619;28;20176;-75
2023/01/05 11:02:34;;;;;;;3.55;2.03;;;;;;;10.95;70.35;99087.50;5098037;28;20053;-75
2023/01/05 11:05:05;;;;;;;3.45;1.90;;;;;;;10.20;70.72;98974.53;5115775;28;20035;-75
2023/01/05 11:07:48;;;;;;;3.83;2.00;;;;;;;8.79;70.77;98947.25;5114627;28;20031;-75
2023/01/05 11:10:29;;;;;;;4.57;1.95;;;;;;;10.88;71.09;99075.56;5114899;28;20047;-75
2023/01/05 11:13:02;;;;;;;4.63;2.13;;;;;;;9.82;70.58;98906.19;5113949;28;20048;-75
2023/01/05 11:15:31;;;;;;;3.38;1.77;;;;;;;10.81;70.40;99098.94;5115203;28;20063;-75
2023/01/05 11:17:58;;;;;;;4.20;1.70;;;;;;;9.92;70.42;98957.63;5114869;28;20070;-75
2023/01/05 11:20:27;;;;;;;3.60;2.45;;;;;;;10.74;70.95;99089.59;5114720;28;20036;-74
2023/01/05 11:22:56;;;;;;;4.25;2.67;;;;;;;10.72;71.22;99080.03;5114704;28;20293;-75
2023/01/05 11:25:28;;;;;;;3.58;1.98;;;;;;;10.08;71.51;98973.47;5113761;28;20107;-75
2023/01/05 11:28:17;;;;;;;5.88;2.22;;;;;;;10.79;72.79;99070.81;5113903;28;20050;-75
2023/01/05 11:30:57;;;;;;;4.00;2.10;;;;;;;10.84;72.30;99072.25;5106097;28;20052;-75
2023/01/05 11:33:27;;;;;;;5.95;2.35;;;;;;;10.96;71.54;99057.38;5114213;28;20036;-75
2023/01/05 11:35:55;;;;;;;4.45;2.00;;;;;;;10.80;71.79;99015.06;5114182;28;20113;-74
2023/01/05 11:38:26;;;;;;;4.53;2.25;;;;;;;11.15;72.01;99060.59;5114495;28;20051;-75
2023/01/05 11:40:55;;;;;;;4.63;2.13;;;;;;;11.17;71.26;99092.34;5113492;28;20048;-75
2023/01/05 11:43:23;;;;;;;4.53;2.33;;;;;;;9.41;71.08;98780.78;5114393;28;20094;-75
2023/01/05 11:45:56;;;;;;;4.10;2.40;;;;;;;-0.47;70.64;97151.16;5113162;28;20038;-75
2023/01/05 11:48:26;;;;;;;5.03;2.67;;;;;;;11.20;71.00;99061.16;5114439;28;20059;-75
2023/01/05 11:50:55;;;;;;;5.00;2.00;;;;;;;11.24;71.13;99077.75;5113309;28;20035;-75
2023/01/05 11:53:27;;;;;;;3.70;1.98;;;;;;;11.26;71.31;99065.22;5114454;28;20203;-75
2023/01/05 11:56:03;;;;;;;3.97;2.30;;;;;;;10.24;71.46;98857.72;5111121;28;20051;-75
2023/01/05 11:58:34;;;;;;;4.07;2.35;;;;;;;11.50;71.02;99036.31;5111745;28;20063;-74
2023/01/05 12:01:44;;;;;;;4.35;2.60;;;;;;;11.61;71.32;99020.53;5111937;28;20036;-75
2023/01/05 12:04:35;;;;;;;4.53;2.30;;;;;;;11.34;70.54;98977.19;5110833;28;20051;-75
2023/01/05 12:07:16;;;;;;;4.80;2.50;;;;;;;11.72;70.03;99033.97;5110312;28;20044;-74
2023/01/05 12:09:50;;;;;;;5.30;2.30;;;;;;;11.79;69.58;99037.06;5111633;28;20044;-75
2023/01/05 12:12:26;;;;;;;4.50;2.10;;;;;;;11.78;69.12;99038.03;5111528;28;20123;-75
2023/01/05 12:15:22;;;;;;;3.75;2.38;;;;;;;11.57;68.73;99013.72;5111328;28;20287;-75
2023/01/05 12:18:02;;;;;;;4.45;2.20;;;;;;;11.64;68.60;99036.25;5111596;28;20036;-75
2023/01/05 12:20:48;;;;;;;4.32;2.22;;;;;;;11.60;68.78;99041.88;5094799;28;20044;-75
2023/01/05 12:23:34;;;;;;;4.50;2.10;;;;;;;11.58;68.39;99031.34;5112418;28;20051;-75